Aérodrome :
LOGIN :

S'inscrire | Disclaimer

   EN    FR    IT 

 










Légende :    VFR   VFR Marginal   IFR   IFR Intensif   IFR Très Intensif
Visi : 
Plafond : 
>= 8 km
>= 3000ft
5 à 8 km
1000 à 3000 ft
1500m à 5 km
500 à 1000 ft
800 à 1500m
200 à 500 ft
< 800m
< 200 ft
Symboles :   Orages  Brouillard  Fortes neiges  Fortes précipitations  Vent > 20 kt
SIGMETs :   Divers  Orages  Givrage  Turbulence  Onde Orograph.  Cendres Volcan.






- Altitude de l'aérodrome : 20 ft


EBFN - Koksijde

DERNIER METAR :
  • 252155Z AUTO 19008KT 9999 BKN067/// BKN120/// 09/07 Q0999 BLU

METARs EXPIRÉS :
  • 252125Z AUTO 19007KT 9999 FEW062/// 08/06 Q0999 BLU
  • 252055Z AUTO 20008KT 9999 FEW120/// SCT190/// 09/06 Q0999 BLU
  • 252025Z AUTO 19008KT 9999 BKN160/// 09/07 Q0999 BLU
  • 251955Z AUTO 20008KT 9999 SCT150/// BKN170/// 09/07 Q0999 BLU
  • 251925Z AUTO 21010KT 9999 OVC150/// 10/07 Q0999 BLU

TAF TAF EBFN
Valide du 25 à 19h jusqu'au 26 à 07h UTC


251541Z 2519/2607 20010KT 9999 SCT040 SCT220
TEMPO 2519/2524 22015G30KT 5000 SHRA SCT020TCU
PROB30
TEMPO 2519/2522 23017G35KT 3000 -TSRA BKN017CB
TEMPO 2602/2607 18015KT SCT018



MET'MAP, la Météo Aéronautique d'un coup d'oeil ! - Copyright ORBIFLY Décembre 2007 - Disclaimer

ORBIFLY MET'MAP TEAM :

Programmation & Développement : Alexandra Zaïnal
Sur une idée originale de : Baudouin d'Aumeries
Assistance à la programmation : Marc-Olivier Méhu
Soutien technique & logistique : Manuel Goepfert

Contact : metmap@orbifly.com




SOURCES & CREDITS :

   NOAA